createdAt,value
2022-11-22T00:00:40.946Z,71.20
2022-11-22T00:01:43.761Z,47.75
2022-11-22T00:02:47.848Z,57.85
2022-11-22T00:03:50.508Z,50.60
2022-11-22T00:04:54.266Z,53.78
2022-11-22T00:05:57.994Z,57.58
2022-11-22T00:07:00.926Z,57.42
2022-11-22T00:08:05.277Z,48.22
2022-11-22T00:09:08.136Z,45.50
2022-11-22T00:10:13.856Z,52.58
2022-11-22T00:11:16.640Z,56.65
2022-11-22T00:12:21.878Z,52.67
2022-11-22T00:13:24.528Z,56.60
2022-11-22T00:14:29.215Z,48.58
2022-11-22T00:15:31.992Z,52.17
2022-11-22T00:16:36.004Z,54.83
2022-11-22T00:17:39.177Z,59.30
2022-11-22T00:18:42.886Z,52.55
2022-11-22T00:19:49.938Z,60.17
2022-11-22T00:20:53.687Z,102.53
2022-11-22T00:21:56.361Z,94.38
2022-11-22T00:23:00.188Z,91.15
2022-11-22T00:24:02.837Z,76.03
2022-11-22T00:25:07.685Z,56.13
2022-11-22T00:26:12.367Z,61.35
2022-11-22T00:27:16.186Z,53.60
2022-11-22T00:28:20.256Z,60.60
2022-11-22T00:29:23.971Z,50.83
2022-11-22T00:30:26.642Z,49.13
2022-11-22T00:31:30.409Z,49.20
2022-11-22T00:32:33.049Z,51.30
2022-11-22T00:33:36.818Z,51.25
2022-11-22T00:34:39.527Z,49.35
2022-11-22T00:35:43.218Z,50.85
2022-11-22T00:36:45.898Z,48.83
2022-11-22T00:37:49.684Z,47.28
2022-11-22T00:38:53.029Z,46.17
2022-11-22T00:39:56.737Z,45.80
2022-11-22T00:40:59.397Z,44.10
2022-11-22T00:42:03.147Z,43.65
2022-11-22T00:43:05.765Z,43.05
2022-11-22T00:44:10.956Z,40.60
2022-11-22T00:45:13.677Z,44.17
2022-11-22T00:46:17.406Z,43.17
2022-11-22T00:47:20.029Z,39.90
2022-11-22T00:48:23.706Z,42.08
2022-11-22T00:49:26.399Z,40.60
2022-11-22T00:50:30.466Z,38.15
2022-11-22T00:51:34.299Z,37.38
2022-11-22T00:52:36.946Z,37.28
2022-11-22T00:53:40.696Z,35.50
2022-11-22T00:54:50.036Z,37.45
2022-11-22T00:55:55.276Z,37.28
2022-11-22T00:56:57.968Z,38.00
2022-11-22T00:58:01.730Z,38.22
2022-11-22T00:59:04.368Z,37.80
2022-11-22T01:00:11.203Z,38.92
2022-11-22T01:01:13.918Z,38.20
2022-11-22T01:02:17.675Z,36.83
2022-11-22T01:03:20.316Z,31.90
2022-11-22T01:04:24.229Z,34.33
2022-11-22T01:05:26.859Z,37.63
2022-11-22T01:06:30.566Z,42.67
2022-11-22T01:07:33.233Z,50.22
2022-11-22T01:08:37.154Z,49.95
2022-11-22T01:09:39.797Z,44.42
2022-11-22T01:10:43.476Z,42.03
2022-11-22T01:11:46.369Z,36.55
2022-11-22T01:12:50.178Z,38.25
2022-11-22T01:13:52.887Z,39.35
2022-11-22T01:14:56.668Z,36.95
2022-11-22T01:16:01.918Z,36.53
2022-11-22T01:17:05.569Z,37.78
2022-11-22T01:18:08.216Z,41.17
2022-11-22T01:19:12.223Z,39.83
2022-11-22T01:20:14.836Z,38.47
2022-11-22T01:21:18.558Z,40.22
2022-11-22T01:22:21.259Z,42.70
2022-11-22T01:23:25.006Z,41.58
2022-11-22T01:24:27.693Z,40.80
2022-11-22T01:25:31.467Z,42.50
2022-11-22T01:26:34.549Z,43.50
2022-11-22T01:27:38.407Z,41.70
2022-11-22T01:28:41.040Z,42.33
2022-11-22T01:29:44.748Z,43.95
2022-11-22T01:30:50.611Z,40.00
2022-11-22T01:31:56.016Z,46.72
2022-11-22T01:32:58.727Z,52.58
2022-11-22T01:34:02.468Z,48.22
2022-11-22T01:35:05.834Z,51.97
2022-11-22T01:36:09.786Z,58.15
2022-11-22T01:37:12.534Z,54.47
2022-11-22T01:38:16.367Z,48.03
2022-11-22T01:39:19.177Z,52.08
2022-11-22T01:40:22.968Z,51.40
2022-11-22T01:41:25.656Z,57.05
2022-11-22T01:42:43.662Z,47.03
2022-11-22T01:43:46.362Z,53.92
2022-11-22T01:44:50.335Z,64.60
2022-11-22T01:45:53.898Z,62.85
2022-11-22T01:46:59.666Z,69.57
2022-11-22T01:48:04.248Z,61.03
2022-11-22T01:50:49.286Z,64.22
2022-11-22T01:51:53.731Z,55.53
2022-11-22T01:52:58.115Z,56.30
2022-11-22T01:54:06.267Z,60.08
2022-11-22T01:55:11.999Z,61.75
2022-11-22T01:56:17.688Z,61.83
2022-11-22T01:57:23.535Z,60.70
2022-11-22T01:58:28.924Z,61.92
2022-11-22T01:59:34.674Z,62.53
2022-11-22T02:00:38.730Z,59.70
2022-11-22T02:01:42.689Z,51.60
2022-11-22T02:02:48.005Z,53.65
2022-11-22T02:03:53.305Z,59.85
2022-11-22T02:04:57.603Z,58.95
2022-11-22T02:06:01.362Z,53.55
2022-11-22T02:07:09.408Z,54.70
2022-11-22T02:08:17.083Z,58.15
2022-11-22T02:09:19.725Z,53.53
2022-11-22T02:10:25.248Z,56.63
2022-11-22T02:11:33.612Z,66.32
2022-11-22T02:12:38.075Z,60.38
2022-11-22T02:13:43.355Z,54.25
2022-11-22T02:14:47.603Z,64.68
2022-11-22T02:15:50.657Z,69.40
2022-11-22T02:16:54.472Z,70.50
2022-11-22T02:17:58.896Z,63.90
2022-11-22T02:19:02.691Z,63.92
2022-11-22T02:20:07.915Z,63.05
2022-11-22T02:21:12.013Z,61.40
2022-11-22T02:22:24.122Z,63.17
2022-11-22T02:23:36.263Z,63.00
2022-11-22T02:24:44.109Z,68.75
2022-11-22T02:25:54.935Z,69.63
2022-11-22T02:26:57.843Z,89.47
2022-11-22T02:28:01.579Z,68.65
2022-11-22T02:29:07.233Z,61.67
2022-11-22T02:30:12.050Z,57.80
2022-11-22T02:31:34.474Z,53.75
2022-11-22T02:32:38.329Z,54.03
2022-11-22T02:33:40.999Z,50.97
2022-11-22T02:34:46.044Z,49.13
2022-11-22T02:35:49.135Z,50.63
2022-11-22T02:36:55.222Z,53.05
2022-11-22T02:37:59.480Z,52.30
2022-11-22T02:39:03.133Z,54.25
2022-11-22T02:40:10.104Z,51.33
2022-11-22T02:41:14.245Z,48.22
2022-11-22T02:42:18.126Z,48.63
2022-11-22T02:43:22.395Z,48.90
2022-11-22T02:44:26.309Z,49.63
2022-11-22T02:45:29.154Z,46.03
2022-11-22T02:46:32.856Z,47.92
2022-11-22T02:47:35.563Z,47.28
2022-11-22T02:48:42.798Z,47.35
2022-11-22T02:49:45.508Z,49.60
2022-11-22T02:50:49.354Z,43.72
2022-11-22T02:51:52.737Z,47.95
2022-11-22T02:52:56.544Z,50.42
2022-11-22T02:53:59.227Z,52.58
2022-11-22T02:55:02.964Z,52.17
2022-11-22T02:56:06.064Z,53.47
2022-11-22T02:57:12.032Z,50.45
2022-11-22T02:58:14.775Z,54.60
2022-11-22T02:59:18.584Z,47.78
2022-11-22T03:00:21.323Z,47.78
2022-11-22T03:01:25.157Z,43.17
2022-11-22T03:02:27.947Z,48.22
2022-11-22T03:03:32.436Z,47.13
2022-11-22T03:04:36.205Z,47.38
2022-11-22T03:05:38.831Z,47.38
2022-11-22T03:06:42.575Z,45.05
2022-11-22T03:07:45.389Z,48.00
2022-11-22T03:08:54.667Z,42.85
2022-11-22T03:09:58.721Z,43.00
2022-11-22T03:11:02.464Z,43.22
2022-11-22T03:12:05.653Z,43.38
2022-11-22T03:13:10.934Z,42.65
2022-11-22T03:14:14.655Z,41.13
2022-11-22T03:15:18.546Z,38.72
2022-11-22T03:16:21.173Z,45.38
2022-11-22T03:17:24.891Z,42.78
2022-11-22T03:18:27.624Z,41.58
2022-11-22T03:19:31.557Z,41.28
2022-11-22T03:20:34.427Z,42.83
2022-11-22T03:21:38.254Z,40.58
2022-11-22T03:22:41.020Z,41.50
2022-11-22T03:23:44.883Z,42.63
2022-11-22T03:24:48.669Z,40.90
2022-11-22T03:25:51.360Z,39.88
2022-11-22T03:26:58.933Z,41.92
2022-11-22T03:28:01.665Z,39.60
2022-11-22T03:29:07.020Z,40.72
2022-11-22T03:30:10.773Z,41.30
2022-11-22T03:31:14.446Z,41.67
2022-11-22T03:32:17.354Z,39.45
2022-11-22T03:33:22.162Z,39.65
2022-11-22T03:34:24.811Z,38.63
2022-11-22T03:35:28.568Z,42.45
2022-11-22T03:36:31.274Z,43.03
2022-11-22T03:37:35.033Z,44.70
2022-11-22T03:38:37.693Z,47.38
2022-11-22T03:39:41.374Z,37.78
2022-11-22T03:40:46.663Z,37.28
2022-11-22T03:41:50.473Z,40.65
2022-11-22T03:42:53.236Z,41.55
2022-11-22T03:43:58.230Z,38.08
2022-11-22T03:45:03.588Z,41.42
2022-11-22T03:46:06.411Z,44.05
2022-11-22T03:47:10.215Z,50.28
2022-11-22T03:48:13.114Z,42.67
2022-11-22T03:49:17.015Z,46.15
2022-11-22T03:50:20.833Z,41.15
2022-11-22T03:51:23.516Z,40.63
2022-11-22T03:52:27.263Z,42.72
2022-11-22T03:53:29.956Z,43.55
2022-11-22T03:54:33.692Z,46.03
2022-11-22T03:55:36.635Z,43.53
2022-11-22T03:56:40.410Z,42.67
2022-11-22T03:57:43.073Z,41.72
2022-11-22T03:58:46.876Z,36.50
2022-11-22T03:59:49.528Z,44.67
2022-11-22T04:00:54.645Z,42.45
2022-11-22T04:01:57.488Z,42.97
2022-11-22T04:03:01.350Z,41.05
2022-11-22T04:04:04.427Z,41.20
2022-11-22T04:05:08.915Z,40.95
2022-11-22T04:06:11.585Z,38.90
2022-11-22T04:07:15.373Z,37.80
2022-11-22T04:08:18.137Z,37.60
2022-11-22T04:09:21.945Z,36.50
2022-11-22T04:10:25.043Z,38.70
2022-11-22T04:11:28.785Z,38.97
2022-11-22T04:12:31.545Z,45.92
2022-11-22T04:13:49.066Z,47.70
2022-11-22T04:15:10.775Z,36.83
2022-11-22T04:16:14.964Z,35.50
2022-11-22T04:17:38.816Z,36.00
2022-11-22T04:18:41.473Z,46.33
2022-11-22T04:20:07.655Z,37.42
2022-11-22T04:21:28.773Z,36.22
2022-11-22T04:22:31.436Z,39.13
2022-11-22T04:23:35.243Z,38.65
2022-11-22T04:24:56.365Z,39.72
2022-11-22T04:25:59.076Z,44.00
2022-11-22T04:27:02.847Z,46.28
2022-11-22T04:28:06.555Z,40.03
2022-11-22T04:29:10.721Z,46.47
2022-11-22T04:30:18.959Z,46.03
2022-11-22T04:31:43.080Z,41.17
2022-11-22T04:32:46.950Z,35.67
2022-11-22T04:33:49.665Z,43.55
2022-11-22T04:34:53.416Z,40.35
2022-11-22T04:35:56.194Z,38.90
2022-11-22T04:36:59.994Z,39.50
2022-11-22T04:38:02.675Z,38.35
2022-11-22T04:39:06.515Z,38.45
2022-11-22T04:40:11.648Z,37.90
2022-11-22T04:41:14.381Z,36.72
2022-11-22T04:42:47.025Z,36.88
2022-11-22T04:44:07.808Z,35.22
2022-11-22T04:45:12.240Z,34.75
2022-11-22T04:46:15.686Z,34.97
2022-11-22T04:47:38.626Z,35.53
2022-11-22T04:48:42.695Z,32.67
2022-11-22T04:49:45.455Z,32.53
2022-11-22T04:51:06.303Z,34.78
2022-11-22T04:52:27.944Z,32.08
2022-11-22T04:53:32.042Z,32.35
2022-11-22T04:54:34.795Z,32.13
2022-11-22T04:55:38.512Z,31.77
2022-11-22T04:56:41.245Z,31.30
2022-11-22T04:57:45.035Z,30.65
2022-11-22T04:58:47.786Z,30.65
2022-11-22T04:59:51.695Z,29.20
2022-11-22T05:00:54.381Z,30.23
2022-11-22T05:01:58.202Z,29.00
2022-11-22T05:03:02.689Z,29.23
2022-11-22T05:04:06.684Z,29.13
2022-11-22T05:05:10.044Z,26.45
2022-11-22T05:06:15.813Z,28.10
2022-11-22T05:07:18.700Z,28.73
2022-11-22T05:08:22.471Z,28.40
2022-11-22T05:09:25.200Z,28.23
2022-11-22T05:10:28.935Z,28.33
2022-11-22T05:11:31.573Z,25.92
2022-11-22T05:12:35.366Z,24.65
2022-11-22T05:13:39.200Z,25.27
2022-11-22T05:14:43.047Z,24.38
2022-11-22T05:15:45.696Z,25.30
2022-11-22T05:16:49.466Z,25.55
2022-11-22T05:17:52.197Z,24.50
2022-11-22T05:19:00.405Z,24.23
2022-11-22T05:20:03.356Z,24.20
2022-11-22T05:21:08.143Z,21.67
2022-11-22T05:22:10.801Z,21.55
2022-11-22T05:23:31.975Z,23.20
2022-11-22T05:24:34.646Z,22.00
2022-11-22T05:25:38.407Z,22.60
2022-11-22T05:26:42.215Z,19.95
2022-11-22T05:27:45.064Z,19.90
2022-11-22T05:28:48.776Z,20.70
2022-11-22T05:29:51.393Z,20.02
2022-11-22T05:30:55.145Z,21.70
2022-11-22T05:31:57.871Z,20.48
2022-11-22T05:33:01.575Z,20.80
2022-11-22T05:34:05.616Z,21.65
2022-11-22T05:35:10.032Z,21.63
2022-11-22T05:36:13.274Z,21.58
2022-11-22T05:37:16.998Z,21.35
2022-11-22T05:38:19.683Z,20.83
2022-11-22T05:39:23.392Z,19.75
2022-11-22T05:40:26.647Z,20.00
2022-11-22T05:41:30.362Z,19.73
2022-11-22T05:42:33.696Z,21.05
2022-11-22T05:43:37.446Z,20.63
2022-11-22T05:44:40.146Z,21.75
2022-11-22T05:45:43.964Z,21.77
2022-11-22T05:46:46.666Z,20.80
2022-11-22T05:47:50.406Z,22.30
2022-11-22T05:48:54.567Z,20.38
2022-11-22T05:49:59.727Z,21.92
2022-11-22T05:51:05.355Z,21.05
2022-11-22T05:52:09.117Z,22.55
2022-11-22T05:53:12.160Z,20.75
2022-11-22T05:54:16.095Z,20.70
2022-11-22T05:55:18.795Z,20.92
2022-11-22T05:56:24.634Z,19.67
2022-11-22T05:57:27.934Z,20.58
2022-11-22T05:58:31.641Z,20.00
2022-11-22T05:59:34.444Z,20.50
2022-11-22T06:00:38.166Z,21.45
2022-11-22T06:01:42.267Z,19.30
2022-11-22T06:02:45.010Z,19.75
2022-11-22T06:03:49.258Z,21.20
2022-11-22T06:04:52.096Z,20.40
2022-11-22T06:05:57.267Z,20.10
2022-11-22T06:06:59.874Z,20.23
2022-11-22T06:08:03.721Z,21.75
2022-11-22T06:09:06.474Z,22.17
2022-11-22T06:10:11.133Z,21.52
2022-11-22T06:11:15.666Z,24.05
2022-11-22T06:12:19.388Z,23.45
2022-11-22T06:13:22.071Z,21.80
2022-11-22T06:14:25.789Z,23.75
2022-11-22T06:15:28.685Z,25.63
2022-11-22T06:16:32.828Z,25.95
2022-11-22T06:17:35.503Z,23.50
2022-11-22T06:18:39.505Z,23.38
2022-11-22T06:19:42.447Z,23.67
2022-11-22T06:20:46.373Z,22.55
2022-11-22T06:21:50.415Z,24.05
2022-11-22T06:22:54.164Z,22.70
2022-11-22T06:23:56.897Z,21.67
2022-11-22T06:25:00.736Z,20.08
2022-11-22T06:26:04.819Z,23.00
2022-11-22T06:27:08.531Z,20.17
2022-11-22T06:28:11.206Z,21.63
2022-11-22T06:29:15.173Z,19.80
2022-11-22T06:30:17.915Z,21.08
2022-11-22T06:31:23.179Z,25.10
2022-11-22T06:32:25.975Z,24.52
2022-11-22T06:33:29.970Z,20.20
2022-11-22T06:34:33.793Z,21.92
2022-11-22T06:35:36.445Z,21.67
2022-11-22T06:36:40.542Z,21.50
2022-11-22T06:37:45.775Z,23.15
2022-11-22T06:38:48.838Z,22.55
2022-11-22T06:39:52.655Z,20.38
2022-11-22T06:41:00.425Z,21.70
2022-11-22T06:42:04.176Z,21.00
2022-11-22T06:43:06.776Z,22.15
2022-11-22T06:44:11.313Z,22.95
2022-11-22T06:45:14.266Z,24.63
2022-11-22T06:46:18.818Z,23.83
2022-11-22T06:47:21.588Z,22.52
2022-11-22T06:48:25.584Z,24.48
2022-11-22T06:49:28.813Z,24.50
2022-11-22T06:50:32.797Z,23.92
2022-11-22T06:51:35.522Z,24.90
2022-11-22T06:52:39.375Z,24.17
2022-11-22T06:53:48.567Z,27.33
2022-11-22T06:54:52.957Z,29.45
2022-11-22T06:56:01.590Z,27.67
2022-11-22T06:57:05.519Z,29.45
2022-11-22T06:58:08.334Z,28.15
2022-11-22T06:59:12.246Z,30.52
2022-11-22T07:00:16.104Z,28.70
2022-11-22T07:01:21.752Z,30.10
2022-11-22T07:02:24.556Z,30.70
2022-11-22T07:03:28.313Z,31.08
2022-11-22T07:04:31.986Z,28.70
2022-11-22T07:05:34.719Z,30.60
2022-11-22T07:06:39.746Z,31.10
2022-11-22T07:07:42.564Z,30.38
2022-11-22T07:08:48.166Z,31.05
2022-11-22T07:09:56.223Z,30.80
2022-11-22T07:11:03.031Z,29.48
2022-11-22T07:12:07.104Z,29.60
2022-11-22T07:13:09.799Z,30.67
2022-11-22T07:14:13.604Z,30.10
2022-11-22T07:15:16.493Z,30.33
2022-11-22T07:16:22.156Z,29.02
2022-11-22T07:17:24.836Z,29.60
2022-11-22T07:18:28.723Z,30.40
2022-11-22T07:19:33.463Z,29.55
2022-11-22T07:20:36.127Z,32.88
2022-11-22T07:21:39.913Z,36.13
2022-11-22T07:22:42.641Z,35.30
2022-11-22T07:23:49.367Z,35.22
2022-11-22T07:24:53.085Z,32.88
2022-11-22T07:25:55.859Z,32.60
2022-11-22T07:26:59.573Z,34.03
2022-11-22T07:28:02.261Z,38.20
2022-11-22T07:29:06.136Z,38.47
2022-11-22T07:30:10.414Z,43.80
2022-11-22T07:31:15.396Z,44.22
2022-11-22T07:32:18.163Z,44.38
2022-11-22T07:33:21.832Z,43.35
2022-11-22T07:34:25.555Z,43.10
2022-11-22T07:35:29.179Z,42.55
2022-11-22T07:36:32.929Z,41.08
2022-11-22T07:37:35.676Z,37.50
2022-11-22T07:38:40.048Z,39.08
2022-11-22T07:39:45.244Z,36.72
2022-11-22T07:40:47.953Z,38.80
2022-11-22T07:41:51.617Z,38.30
2022-11-22T07:42:58.328Z,37.63
2022-11-22T07:44:02.522Z,40.78
2022-11-22T07:45:05.957Z,39.28
2022-11-22T07:46:13.275Z,39.60
2022-11-22T07:47:21.458Z,42.72
2022-11-22T07:48:26.656Z,44.20
2022-11-22T07:49:30.767Z,87.40
2022-11-22T07:50:34.414Z,149.25
2022-11-22T07:51:38.126Z,64.80
2022-11-22T07:52:40.876Z,52.58
2022-11-22T07:53:44.716Z,53.13
2022-11-22T07:54:49.835Z,65.82
2022-11-22T07:55:52.574Z,66.15
2022-11-22T07:56:56.265Z,51.85
2022-11-22T07:57:59.616Z,50.92
2022-11-22T07:59:03.435Z,56.20
2022-11-22T08:00:07.279Z,52.35
2022-11-22T08:01:12.374Z,50.30
2022-11-22T08:02:15.186Z,51.08
2022-11-22T08:03:22.665Z,54.05
2022-11-22T08:04:29.185Z,62.20
2022-11-22T08:05:31.836Z,66.32
2022-11-22T08:06:35.535Z,64.65
2022-11-22T08:07:38.347Z,62.75
2022-11-22T08:08:42.365Z,62.95
2022-11-22T08:09:45.132Z,54.17
2022-11-22T08:10:50.241Z,44.40
2022-11-22T08:11:52.995Z,39.50
2022-11-22T08:13:00.512Z,57.83
2022-11-22T08:14:05.473Z,45.97
2022-11-22T08:15:10.174Z,43.78
2022-11-22T08:16:16.065Z,51.92
2022-11-22T08:17:19.796Z,54.70
2022-11-22T08:18:22.593Z,46.88
2022-11-22T08:19:26.392Z,33.53
2022-11-22T08:20:29.033Z,32.17
2022-11-22T08:21:32.814Z,32.97
2022-11-22T08:22:35.937Z,32.72
2022-11-22T08:23:40.379Z,33.53
2022-11-22T08:24:44.187Z,33.47
2022-11-22T08:25:49.473Z,33.85
2022-11-22T08:26:52.584Z,36.05
2022-11-22T08:27:56.284Z,40.63
2022-11-22T08:28:59.995Z,38.53
2022-11-22T08:30:02.753Z,35.85
2022-11-22T08:31:08.678Z,36.53
2022-11-22T08:32:12.479Z,35.67
2022-11-22T08:33:16.375Z,30.85
2022-11-22T08:34:20.072Z,34.33
2022-11-22T08:35:22.864Z,32.65
2022-11-22T08:36:26.610Z,30.98
2022-11-22T08:37:29.330Z,30.02
2022-11-22T08:38:33.336Z,32.42
2022-11-22T08:39:37.034Z,29.63
2022-11-22T08:40:42.472Z,27.77
2022-11-22T08:41:47.645Z,29.83
2022-11-22T08:42:50.305Z,31.73
2022-11-22T08:43:55.456Z,29.95
2022-11-22T08:44:59.273Z,30.58
2022-11-22T08:46:03.413Z,27.95
2022-11-22T08:47:07.205Z,29.33
2022-11-22T08:48:10.970Z,28.35
2022-11-22T08:49:14.997Z,28.50
2022-11-22T08:50:18.363Z,27.15
2022-11-22T08:51:22.137Z,24.83
2022-11-22T08:52:25.915Z,23.17
2022-11-22T08:53:30.104Z,22.63
2022-11-22T08:54:37.687Z,21.27
2022-11-22T08:55:42.551Z,21.40
2022-11-22T08:56:47.703Z,24.55
2022-11-22T08:57:50.350Z,20.60
2022-11-22T08:58:54.127Z,20.80
2022-11-22T08:59:57.208Z,21.02
2022-11-22T09:01:06.206Z,18.23
2022-11-22T09:02:10.995Z,18.08
2022-11-22T09:03:13.815Z,19.42
2022-11-22T09:04:17.589Z,18.73
2022-11-22T09:05:20.306Z,16.98
2022-11-22T09:10:35.584Z,16.77
2022-11-22T09:11:38.294Z,14.75
2022-11-22T09:12:46.864Z,15.40
2022-11-22T09:13:50.551Z,15.82
2022-11-22T09:14:54.507Z,14.55
2022-11-22T09:16:02.041Z,14.63
2022-11-22T09:17:06.385Z,14.45
2022-11-22T09:18:09.061Z,14.15
2022-11-22T09:19:12.775Z,15.35
2022-11-22T09:20:15.881Z,15.35
2022-11-22T09:21:20.895Z,14.65
2022-11-22T09:22:28.457Z,15.05
2022-11-22T09:23:33.101Z,15.20
2022-11-22T09:24:36.975Z,14.75
2022-11-22T09:25:39.656Z,14.25
2022-11-22T09:26:43.431Z,11.65
2022-11-22T09:27:48.627Z,12.00
2022-11-22T09:28:53.305Z,14.25
2022-11-22T09:29:57.043Z,12.00
2022-11-22T09:31:00.952Z,11.50
2022-11-22T09:32:04.822Z,12.48
2022-11-22T09:33:08.464Z,10.25
2022-11-22T09:34:12.334Z,10.10
2022-11-22T09:35:17.535Z,8.98
2022-11-22T09:36:22.029Z,8.95
2022-11-22T09:37:25.841Z,9.45
2022-11-22T09:38:29.904Z,8.38
2022-11-22T09:39:33.883Z,9.10
2022-11-22T09:40:37.943Z,7.85
2022-11-22T09:42:06.142Z,7.63
2022-11-22T09:43:18.766Z,7.63
2022-11-22T09:44:24.812Z,7.22
2022-11-22T09:45:56.047Z,7.47
2022-11-22T09:47:04.575Z,5.88
2022-11-22T09:48:26.938Z,6.10
2022-11-22T09:49:31.890Z,6.63
2022-11-22T09:50:43.991Z,6.05
2022-11-22T09:51:51.103Z,5.97
2022-11-22T09:52:56.464Z,6.80
2022-11-22T09:54:05.668Z,6.25
2022-11-22T09:55:16.790Z,5.90
2022-11-22T09:56:24.585Z,6.00
2022-11-22T09:57:32.359Z,5.97
2022-11-22T09:58:40.358Z,6.95
2022-11-22T09:59:46.067Z,6.20
2022-11-22T10:00:52.528Z,6.45
2022-11-22T10:02:16.929Z,5.95
2022-11-22T10:03:28.453Z,6.38
2022-11-22T10:04:37.235Z,5.70
2022-11-22T10:05:51.590Z,5.50
2022-11-22T10:06:57.943Z,5.20
2022-11-22T10:08:04.678Z,5.43
2022-11-22T10:09:20.685Z,4.90
2022-11-22T10:10:27.945Z,4.85
2022-11-22T10:11:37.192Z,4.38
2022-11-22T10:12:46.205Z,4.40
2022-11-22T10:13:57.854Z,4.38
2022-11-22T10:15:05.229Z,3.75
2022-11-22T10:16:14.646Z,4.30
2022-11-22T10:17:25.843Z,4.00
2022-11-22T10:18:41.202Z,3.88
2022-11-22T10:19:47.388Z,3.47
2022-11-22T10:20:50.189Z,4.20
2022-11-22T10:21:53.874Z,4.25
2022-11-22T10:22:57.466Z,3.58
2022-11-22T10:24:01.216Z,3.65
2022-11-22T10:25:10.083Z,3.70
2022-11-22T10:26:23.113Z,3.92
2022-11-22T10:27:29.776Z,3.85
2022-11-22T10:28:36.726Z,3.53
2022-11-22T10:29:47.304Z,3.53
2022-11-22T10:30:57.286Z,3.45
2022-11-22T10:32:07.416Z,3.20
2022-11-22T10:33:14.217Z,3.17
2022-11-22T10:34:26.475Z,3.20
2022-11-22T10:35:45.445Z,3.08
2022-11-22T10:36:52.652Z,3.45
2022-11-22T10:38:02.985Z,3.50
2022-11-22T10:39:19.435Z,3.10
2022-11-22T10:40:27.130Z,3.13
2022-11-22T10:41:40.518Z,3.55
2022-11-22T10:42:58.405Z,3.42
2022-11-22T10:44:09.473Z,2.80
2022-11-22T10:45:18.083Z,2.53
2022-11-22T10:46:28.057Z,2.80
2022-11-22T10:47:51.645Z,2.67
2022-11-22T10:49:04.854Z,3.20
2022-11-22T10:50:15.097Z,2.80
2022-11-22T10:51:23.606Z,2.55
2022-11-22T10:52:35.131Z,3.20
2022-11-22T10:53:47.310Z,2.40
2022-11-22T10:54:55.375Z,2.33
2022-11-22T10:56:02.046Z,2.40
2022-11-22T10:57:13.167Z,2.13
2022-11-22T10:58:25.022Z,2.55
2022-11-22T10:59:41.642Z,2.33
2022-11-22T11:00:49.230Z,2.30
2022-11-22T11:02:24.161Z,2.85
2022-11-22T11:03:30.756Z,3.33
2022-11-22T11:04:37.072Z,2.65
2022-11-22T11:07:12.675Z,2.30
2022-11-22T11:08:41.995Z,2.67
2022-11-22T11:11:07.895Z,2.47
2022-11-22T11:12:17.285Z,2.40
2022-11-22T11:13:24.595Z,2.88
2022-11-22T11:14:32.554Z,1.98
2022-11-22T11:15:39.168Z,2.00
2022-11-22T11:16:44.496Z,3.10
2022-11-22T11:17:52.517Z,2.25
2022-11-22T11:18:58.985Z,1.92
2022-11-22T11:20:05.065Z,2.20
2022-11-22T11:21:09.162Z,2.35
2022-11-22T11:22:18.575Z,2.40
2022-11-22T11:23:27.045Z,2.13
2022-11-22T11:24:32.440Z,2.50
2022-11-22T11:25:40.534Z,2.30
2022-11-22T11:26:45.932Z,2.00
2022-11-22T11:27:48.884Z,2.40
2022-11-22T11:28:52.917Z,4.00
2022-11-22T11:30:02.765Z,2.13
2022-11-22T11:31:09.704Z,2.10
2022-11-22T11:32:15.226Z,2.20
2022-11-22T11:33:22.006Z,2.20
2022-11-22T11:34:28.280Z,2.45
2022-11-22T11:35:32.747Z,2.50
2022-11-22T11:36:43.712Z,5.30
2022-11-22T11:37:46.560Z,2.60
2022-11-22T11:38:55.978Z,2.92
2022-11-22T11:39:58.857Z,2.65
2022-11-22T11:41:20.142Z,2.78
2022-11-22T11:42:25.945Z,2.80
2022-11-22T11:43:29.625Z,2.40
2022-11-22T11:44:36.649Z,2.90
2022-11-22T11:45:39.544Z,2.22
2022-11-22T11:46:49.193Z,2.58
2022-11-22T11:47:53.315Z,2.08
2022-11-22T11:48:58.285Z,2.45
2022-11-22T11:50:01.407Z,2.30
2022-11-22T11:51:10.346Z,2.85
2022-11-22T11:52:20.895Z,3.80
2022-11-22T11:53:26.304Z,2.10
2022-11-22T11:54:40.880Z,3.85
2022-11-22T11:55:43.729Z,2.92
2022-11-22T11:56:49.696Z,2.28
2022-11-22T11:57:53.223Z,2.15
2022-11-22T11:58:58.596Z,1.75
2022-11-22T12:00:05.098Z,1.95
2022-11-22T12:01:11.605Z,2.50
2022-11-22T12:02:17.374Z,1.73
2022-11-22T12:03:23.244Z,4.55
2022-11-22T12:04:30.141Z,2.58
2022-11-22T12:05:34.886Z,2.30
2022-11-22T12:06:38.602Z,1.85
2022-11-22T12:07:45.043Z,1.80
2022-11-22T12:08:47.940Z,1.98
2022-11-22T12:09:53.036Z,1.98
2022-11-22T12:10:59.751Z,1.90
2022-11-22T12:12:30.016Z,2.40
2022-11-22T12:13:57.657Z,2.83
2022-11-22T12:15:11.697Z,1.92
2022-11-22T12:16:20.657Z,2.03
2022-11-22T12:17:26.761Z,3.00
2022-11-22T12:18:40.323Z,2.60
2022-11-22T12:19:52.450Z,2.28
2022-11-22T12:21:02.838Z,2.80
2022-11-22T12:22:29.431Z,2.70
2022-11-22T12:23:45.473Z,3.95
2022-11-22T12:25:24.350Z,3.40
2022-11-22T12:26:20.124Z,3.15
2022-11-22T12:27:23.961Z,3.13
2022-11-22T12:28:29.344Z,3.13
2022-11-22T12:29:35.598Z,3.22
2022-11-22T12:30:39.925Z,2.92
2022-11-22T12:31:46.463Z,3.33
2022-11-22T12:32:56.561Z,3.67
2022-11-22T12:34:03.956Z,4.25
2022-11-22T12:35:12.963Z,4.05
2022-11-22T12:36:18.324Z,3.55
2022-11-22T12:37:25.606Z,3.85
2022-11-22T12:38:32.178Z,3.58
2022-11-22T12:39:38.105Z,2.40
2022-11-22T12:40:43.470Z,3.10
2022-11-22T12:41:48.246Z,3.20
2022-11-22T12:42:54.508Z,2.63
2022-11-22T12:43:59.986Z,2.97
2022-11-22T12:45:07.394Z,3.83
2022-11-22T12:46:12.760Z,6.30
2022-11-22T12:47:19.827Z,4.32
2022-11-22T12:48:26.257Z,5.20
2022-11-22T12:49:34.549Z,3.50
2022-11-22T12:50:41.914Z,4.28
2022-11-22T12:51:49.014Z,3.22
2022-11-22T12:52:55.845Z,3.85
2022-11-22T12:54:03.334Z,4.25
2022-11-22T12:55:10.874Z,3.60
2022-11-22T12:56:26.156Z,3.53
2022-11-22T12:57:38.685Z,3.10
2022-11-22T12:58:47.793Z,3.38
2022-11-22T12:59:56.267Z,3.08
2022-11-22T13:01:07.475Z,3.72
2022-11-22T13:02:17.259Z,3.00
2022-11-22T13:03:24.056Z,2.83
2022-11-22T13:04:32.197Z,2.90
2022-11-22T13:05:40.684Z,3.33
2022-11-22T13:06:49.985Z,4.15
2022-11-22T13:07:58.597Z,3.38
2022-11-22T13:09:04.673Z,2.42
2022-11-22T13:10:10.729Z,3.83
2022-11-22T13:11:18.403Z,3.33
2022-11-22T13:12:31.048Z,3.58
2022-11-22T13:13:38.637Z,3.13
2022-11-22T13:14:46.126Z,3.33
2022-11-22T13:15:51.457Z,2.95
2022-11-22T13:16:55.688Z,3.95
2022-11-22T13:17:58.903Z,2.97
2022-11-22T13:19:05.435Z,3.30
2022-11-22T13:20:16.085Z,3.97
2022-11-22T13:21:27.316Z,5.53
2022-11-22T13:22:34.215Z,3.30
2022-11-22T13:23:54.804Z,3.45
2022-11-22T13:25:20.996Z,3.08
2022-11-22T13:26:30.896Z,3.97
2022-11-22T13:27:37.513Z,3.83
2022-11-22T13:28:42.737Z,3.47
2022-11-22T13:29:46.034Z,3.45
2022-11-22T13:31:05.217Z,3.95
2022-11-22T13:32:23.220Z,4.18
2022-11-22T13:33:26.610Z,3.75
2022-11-22T13:34:31.012Z,4.53
2022-11-22T13:35:36.968Z,4.18
2022-11-22T13:36:43.896Z,4.05
2022-11-22T13:37:48.716Z,4.75
2022-11-22T13:38:52.572Z,5.45
2022-11-22T13:39:56.556Z,4.38
2022-11-22T13:41:23.532Z,4.25
2022-11-22T13:42:30.772Z,5.00
2022-11-22T13:43:51.929Z,4.18
2022-11-22T13:45:21.804Z,4.97
2022-11-22T13:47:00.707Z,13.52
2022-11-22T13:48:04.765Z,7.93
2022-11-22T13:49:14.169Z,9.25
2022-11-22T13:50:54.696Z,11.30
2022-11-22T13:51:59.618Z,12.65
2022-11-22T13:53:23.011Z,12.68
2022-11-22T13:54:58.971Z,13.30
2022-11-22T13:56:39.667Z,13.57
2022-11-22T13:57:44.495Z,14.10
2022-11-22T13:58:56.067Z,15.77
2022-11-22T14:00:50.664Z,15.35
2022-11-22T14:02:00.183Z,15.43
2022-11-22T14:03:29.718Z,16.85
2022-11-22T14:04:44.335Z,16.20
2022-11-22T14:05:48.448Z,15.68
2022-11-22T14:06:53.716Z,16.08
2022-11-22T14:07:59.186Z,16.40
2022-11-22T14:09:32.077Z,15.82
2022-11-22T14:10:39.846Z,16.90
2022-11-22T14:11:49.213Z,18.38
2022-11-22T14:13:06.090Z,17.48
2022-11-22T14:14:17.417Z,16.63
2022-11-22T14:15:32.416Z,17.95
2022-11-22T14:16:44.453Z,17.10
2022-11-22T14:17:54.328Z,16.77
2022-11-22T14:19:09.347Z,17.55
2022-11-22T14:20:25.901Z,16.80
2022-11-22T14:21:47.430Z,18.08
2022-11-22T14:22:55.785Z,19.40
2022-11-22T14:24:06.505Z,19.05
2022-11-22T14:25:31.286Z,18.75
2022-11-22T14:26:41.839Z,20.67
2022-11-22T14:27:52.266Z,19.67
2022-11-22T14:29:34.724Z,23.85
2022-11-22T14:30:44.565Z,25.67
2022-11-22T14:31:53.903Z,22.15